Time;durP1;ratioP1;P1;durP2;ratioP2;P2;SDS_P1;SDS_P2;PMS_P1;PMS_P2;Temp;Humidity;BMP_temperature;BMP_pressure;BME280_temperature;BME280_humidity;BME280_pressure;Samples;Min_cycle;Max_cycle;Signal;HPM_P1;HPM_P2
2024/01/01 00:01:22;;;;;;;15.53;7.00;;;6.90;99.90;;;7.44;100.00;96979.22;4974936;28;20625;-80
2024/01/01 00:03:51;;;;;;;16.97;5.57;;;6.90;99.90;;;7.41;100.00;96990.03;4973229;28;20487;-80
2024/01/01 00:06:20;;;;;;;16.97;5.30;;;7.00;99.90;;;7.33;100.00;96982.38;4971844;28;20509;-80
2024/01/01 00:08:50;;;;;;;12.97;6.10;;;6.90;99.90;;;7.35;100.00;96985.59;4970458;28;20524;-80
2024/01/01 00:11:18;;;;;;;11.47;5.60;;;6.90;99.90;;;7.36;100.00;96981.97;4974923;28;20469;-80
2024/01/01 00:13:47;;;;;;;10.13;4.87;;;6.90;99.90;;;7.39;100.00;96981.59;4974485;28;20472;-80
2024/01/01 00:16:16;;;;;;;16.03;5.73;;;7.00;99.90;;;7.40;100.00;96978.00;4971107;28;20837;-80
2024/01/01 00:18:44;;;;;;;21.97;5.33;;;6.90;99.90;;;7.40;100.00;96988.41;4972325;28;20518;-81
2024/01/01 00:21:13;;;;;;;11.90;5.47;;;6.90;99.90;;;7.40;100.00;96982.41;4971282;28;20465;-80
2024/01/01 00:23:41;;;;;;;6.87;3.90;;;6.80;99.90;;;7.40;100.00;96978.00;4972895;28;20472;-80
2024/01/01 00:26:12;;;;;;;12.93;4.43;;;6.80;99.90;;;7.38;100.00;96985.22;4973123;28;20547;-80
2024/01/01 00:28:41;;;;;;;7.50;4.50;;;6.80;99.90;;;7.37;100.00;96986.19;4971635;28;20489;-80
2024/01/01 00:31:10;;;;;;;9.90;4.40;;;6.80;99.90;;;7.37;100.00;96977.59;4972930;28;20472;-80
2024/01/01 00:33:38;;;;;;;12.20;4.60;;;6.90;99.90;;;7.31;100.00;96976.56;4972067;28;21204;-80
2024/01/01 00:36:07;;;;;;;21.23;3.93;;;6.90;99.90;;;7.32;100.00;96985.19;4968687;28;20473;-80
2024/01/01 00:38:36;;;;;;;6.93;4.20;;;6.80;99.90;;;7.32;100.00;96980.78;4972929;28;20463;-80
2024/01/01 00:41:05;;;;;;;13.10;5.87;;;6.90;99.90;;;7.32;100.00;96986.00;4971458;28;21000;-81
2024/01/01 00:43:35;;;;;;;15.30;5.27;;;6.90;99.90;;;7.34;100.00;96989.19;4973465;28;20564;-81
2024/01/01 00:46:03;;;;;;;11.87;4.30;;;6.90;99.90;;;7.33;100.00;96984.16;4972063;28;20500;-80
2024/01/01 00:48:32;;;;;;;12.53;4.80;;;6.90;99.90;;;7.38;100.00;96987.81;4971637;28;20492;-80
2024/01/01 00:51:01;;;;;;;8.30;4.70;;;7.00;99.90;;;7.35;100.00;96985.59;4969343;28;20504;-81
2024/01/01 00:53:29;;;;;;;11.27;4.60;;;6.90;99.90;;;7.37;100.00;96988.78;4971444;28;20468;-80
2024/01/01 00:55:58;;;;;;;11.90;4.90;;;6.90;99.90;;;7.33;100.00;96986.75;4972150;28;20464;-81
2024/01/01 00:58:26;;;;;;;9.70;4.00;;;6.80;99.90;;;7.32;100.00;96986.00;4973039;28;20495;-80
2024/01/01 01:00:57;;;;;;;8.17;4.47;;;6.80;99.90;;;7.32;100.00;96980.78;4971718;28;20473;-80
2024/01/01 01:03:25;;;;;;;8.40;3.13;;;6.90;99.90;;;7.31;100.00;96983.56;4971898;28;20887;-80
2024/01/01 01:05:54;;;;;;;12.97;3.80;;;6.90;99.90;;;7.33;100.00;96984.97;4970454;28;20738;-80
2024/01/01 01:08:26;;;;;;;12.20;4.13;;;6.90;99.90;;;7.30;100.00;96980.16;4972506;28;21034;-80
2024/01/01 01:10:54;;;;;;;16.07;4.53;;;6.80;99.90;;;7.30;100.00;96993.16;4969425;28;20472;-81
2024/01/01 01:13:23;;;;;;;10.83;3.90;;;6.80;99.90;;;7.30;100.00;96987.97;4970203;28;20468;-81
2024/01/01 01:15:52;;;;;;;9.40;3.50;;;6.90;99.90;;;7.31;100.00;96994.78;4971466;28;20545;-81
2024/01/01 01:18:22;;;;;;;12.17;3.67;;;6.80;99.90;;;7.28;100.00;97000.38;4972913;28;20471;-80
2024/01/01 01:20:50;;;;;;;10.67;3.43;;;6.80;99.90;;;7.28;100.00;97000.38;4973431;28;20923;-80
2024/01/01 01:23:19;;;;;;;14.50;2.83;;;6.80;99.90;;;7.29;100.00;96990.78;4973811;28;20476;-80
2024/01/01 01:25:47;;;;;;;8.20;2.73;;;6.80;99.90;;;7.25;100.00;97002.53;4971930;28;20465;-81
2024/01/01 01:28:23;;;;;;;7.00;2.40;;;6.80;99.90;;;7.21;100.00;96996.94;4970421;28;20546;-80
2024/01/01 01:30:51;;;;;;;9.90;2.70;;;6.80;99.90;;;7.20;100.00;96991.91;4974033;28;20468;-80
2024/01/01 01:33:22;;;;;;;12.03;2.80;;;6.70;99.90;;;7.24;100.00;96993.94;4971276;28;20469;-81
2024/01/01 01:35:50;;;;;;;10.80;3.20;;;6.80;99.90;;;7.26;100.00;96989.34;4971524;28;20844;-80
2024/01/01 01:38:19;;;;;;;8.63;2.27;;;6.70;99.90;;;7.26;100.00;96986.72;4972926;28;20472;-81
2024/01/01 01:40:47;;;;;;;13.00;2.20;;;6.80;99.90;;;7.25;100.00;96992.94;4974210;28;20538;-80
2024/01/01 01:43:24;;;;;;;6.60;1.90;;;6.70;99.90;;;7.26;100.00;97011.94;4971764;28;20959;-80
2024/01/01 01:45:55;;;;;;;7.43;2.30;;;6.70;99.90;;;7.26;100.00;97001.53;4971435;28;20472;-80
2024/01/01 01:48:26;;;;;;;7.00;2.10;;;6.70;99.90;;;7.21;100.00;97015.13;4971085;28;20464;-80
2024/01/01 01:50:58;;;;;;;11.57;2.67;;;6.60;99.90;;;7.21;100.00;96999.53;4969976;28;20480;-81
2024/01/01 01:53:29;;;;;;;17.83;3.93;;;6.70;99.90;;;7.25;100.00;97024.16;4970828;28;20523;-80
2024/01/01 01:56:04;;;;;;;13.63;2.30;;;6.70;99.90;;;7.28;100.00;97017.75;4969191;28;20460;-80
2024/01/01 01:58:35;;;;;;;2.90;1.67;;;6.80;99.90;;;7.25;100.00;97016.34;4970822;28;20460;-80
2024/01/01 02:01:03;;;;;;;8.40;1.73;;;6.80;99.90;;;7.17;100.00;97019.09;4969147;28;20578;-80
2024/01/01 02:03:33;;;;;;;4.53;1.87;;;6.70;99.90;;;7.11;100.00;97003.47;4969079;28;20473;-80
2024/01/01 02:06:04;;;;;;;5.20;1.77;;;6.60;99.90;;;7.11;100.00;97004.25;4969074;28;20963;-81
2024/01/01 02:08:33;;;;;;;7.47;1.83;;;6.70;99.90;;;7.09;100.00;97012.25;4970909;28;20493;-80
2024/01/01 02:11:02;;;;;;;5.43;1.23;;;6.60;99.90;;;7.06;100.00;97012.63;4971103;28;20465;-80
2024/01/01 02:13:31;;;;;;;9.13;1.57;;;6.70;99.90;;;7.09;100.00;97021.81;4971958;28;20472;-80
2024/01/01 02:16:00;;;;;;;5.63;1.47;;;6.70;99.90;;;7.10;100.00;97018.25;4970781;28;20511;-81
2024/01/01 02:18:28;;;;;;;5.63;1.60;;;6.70;99.90;;;7.08;100.00;97025.41;4971795;28;20464;-80
2024/01/01 02:20:58;;;;;;;7.40;1.60;;;6.70;99.90;;;7.05;100.00;97028.41;4971287;28;20469;-80
2024/01/01 02:23:29;;;;;;;7.13;1.93;;;6.60;99.90;;;7.05;100.00;97025.78;4972365;28;20473;-80
2024/01/01 02:25:58;;;;;;;15.37;2.53;;;6.60;99.90;;;7.06;100.00;97023.03;4972482;28;20652;-80
2024/01/01 02:28:26;;;;;;;14.87;1.80;;;6.70;99.90;;;7.10;100.00;97023.44;4973158;28;20554;-80
2024/01/01 02:30:55;;;;;;;7.20;1.40;;;6.60;99.90;;;7.03;100.00;97017.41;4973202;28;21405;-81
2024/01/01 02:33:23;;;;;;;8.17;1.80;;;6.60;99.90;;;7.03;100.00;97018.22;4971972;28;21015;-81
2024/01/01 02:35:52;;;;;;;9.70;2.03;;;6.70;99.90;;;7.09;100.00;97009.63;4973379;28;21027;-80
2024/01/01 02:38:20;;;;;;;5.60;2.10;;;6.70;99.90;;;7.11;100.00;97017.25;4970514;28;20473;-80
2024/01/01 02:40:50;;;;;;;7.13;1.70;;;6.60;99.90;;;7.13;100.00;97015.25;4970858;28;20575;-80
2024/01/01 02:43:19;;;;;;;5.97;1.80;;;6.70;99.90;;;7.09;100.00;97014.03;4974000;28;20577;-80
2024/01/01 02:45:48;;;;;;;4.07;1.80;;;6.70;99.90;;;7.12;100.00;97016.25;4973313;28;20468;-80
2024/01/01 02:48:16;;;;;;;6.00;1.53;;;6.80;99.90;;;7.09;100.00;97016.63;4968797;28;20468;-81
2024/01/01 02:50:45;;;;;;;6.90;1.80;;;6.70;99.90;;;7.03;100.00;97013.00;4972115;28;20590;-80
2024/01/01 02:53:13;;;;;;;6.70;1.80;;;6.50;99.90;;;7.07;100.00;97014.25;4972481;28;21151;-80
2024/01/01 02:55:42;;;;;;;6.77;1.60;;;6.60;99.90;;;7.10;100.00;97020.84;4973927;28;21504;-80
2024/01/01 02:58:12;;;;;;;14.50;3.07;;;6.60;99.90;;;7.11;100.00;97019.84;4975907;28;20990;-80
2024/01/01 03:00:41;;;;;;;8.33;2.10;;;6.60;99.90;;;7.15;100.00;97021.06;4975343;28;20479;-80
2024/01/01 03:03:09;;;;;;;9.10;2.40;;;6.60;99.90;;;7.11;100.00;97014.66;4972310;28;20555;-81
2024/01/01 03:05:38;;;;;;;11.03;1.90;;;6.60;99.90;;;7.11;100.00;97019.06;4972639;28;20457;-81
2024/01/01 03:08:08;;;;;;;9.37;3.03;;;6.50;99.90;;;7.12;100.00;97020.63;4974375;28;20465;-80
2024/01/01 03:10:37;;;;;;;14.07;3.33;;;6.50;99.90;;;7.09;100.00;97027.84;4974469;28;20495;-80
2024/01/01 03:13:06;;;;;;;4.03;1.40;;;6.50;99.90;;;7.12;100.00;97025.84;4976876;28;20479;-80
2024/01/01 03:15:36;;;;;;;12.60;1.97;;;6.50;99.90;;;7.15;100.00;97025.47;4974829;28;21845;-80
2024/01/01 03:18:05;;;;;;;6.87;1.67;;;6.50;99.90;;;7.17;100.00;97029.50;4974242;28;20468;-80
2024/01/01 03:20:34;;;;;;;6.30;1.60;;;6.50;99.90;;;7.19;100.00;97024.09;4978266;28;20897;-80
2024/01/01 03:23:03;;;;;;;14.43;1.97;;;6.60;99.90;;;7.17;100.00;97024.28;4975301;28;20467;-81
2024/01/01 03:25:32;;;;;;;12.77;1.93;;;6.60;99.90;;;7.19;100.00;97026.69;4974903;28;20460;-80
2024/01/01 03:28:00;;;;;;;6.33;2.20;;;6.70;99.90;;;7.15;100.00;97026.25;4976829;28;20524;-80
2024/01/01 03:30:29;;;;;;;16.50;2.17;;;6.60;99.90;;;7.15;100.00;97026.25;4974482;28;20496;-81
2024/01/01 03:32:59;;;;;;;10.20;1.70;;;6.70;99.90;;;7.16;100.00;97035.66;4971998;28;20486;-81
2024/01/01 03:35:29;;;;;;;8.60;2.60;;;6.70;99.90;;;7.07;100.00;97024.63;4973759;28;20469;-80
2024/01/01 03:37:58;;;;;;;10.33;1.83;;;6.70;99.90;;;7.08;100.00;97033.22;4976299;28;20476;-80
2024/01/01 03:40:26;;;;;;;11.17;2.67;;;6.70;99.90;;;7.06;100.00;97027.41;4973619;28;21850;-80
2024/01/01 03:42:55;;;;;;;7.00;1.50;;;6.60;99.90;;;7.06;100.00;97033.41;4973121;28;20465;-80
2024/01/01 03:45:23;;;;;;;9.57;1.50;;;6.60;99.90;;;7.07;100.00;97029.03;4975359;28;20468;-80
2024/01/01 03:47:53;;;;;;;11.10;1.77;;;6.60;99.90;;;6.97;100.00;97034.56;4971963;28;20518;-80
2024/01/01 03:50:24;;;;;;;9.83;1.77;;;6.60;99.90;;;6.99;100.00;97036.97;4972700;28;21059;-80
2024/01/01 03:52:53;;;;;;;7.30;1.60;;;6.60;99.90;;;7.00;100.00;97033.38;4974334;28;20464;-80
2024/01/01 03:55:22;;;;;;;5.70;1.93;;;6.50;99.90;;;6.94;100.00;97034.13;4975645;28;20459;-80
2024/01/01 03:57:51;;;;;;;10.23;1.37;;;6.50;99.90;;;6.92;100.00;97031.72;4971348;28;20493;-80
2024/01/01 04:00:20;;;;;;;7.73;1.87;;;6.50;99.90;;;6.93;100.00;97032.53;4972395;28;20500;-80
2024/01/01 04:02:48;;;;;;;7.17;1.83;;;6.60;99.90;;;6.95;100.00;97035.72;4972168;28;20469;-80
2024/01/01 04:05:17;;;;;;;10.83;1.70;;;6.60;99.90;;;6.92;100.00;97031.72;4971543;28;20457;-80
2024/01/01 04:07:47;;;;;;;7.70;2.03;;;6.60;99.90;;;6.98;100.00;97030.94;4970764;28;20468;-80
2024/01/01 04:10:17;;;;;;;23.27;8.63;;;6.60;99.90;;;6.93;100.00;97035.13;4967441;28;20497;-80
2024/01/01 04:12:46;;;;;;;18.57;6.60;;;6.40;99.90;;;6.95;100.00;97033.94;4969421;28;20901;-81
2024/01/01 04:15:14;;;;;;;4.60;1.30;;;6.50;99.90;;;6.91;100.00;97027.50;4970372;28;20472;-80
2024/01/01 04:17:43;;;;;;;6.10;2.23;;;6.50;99.90;;;6.90;100.00;97049.31;4972934;28;20456;-80
2024/01/01 04:20:12;;;;;;;9.17;1.53;;;6.50;99.90;;;6.85;100.00;97050.84;4972040;28;20476;-80
2024/01/01 04:22:40;;;;;;;3.00;1.40;;;6.40;99.90;;;6.74;100.00;97065.13;4971599;28;20460;-80
2024/01/01 04:25:11;;;;;;;24.37;6.23;;;6.30;99.90;;;6.71;100.00;97059.50;4971618;28;20468;-80
2024/01/01 04:27:40;;;;;;;4.17;1.30;;;6.20;99.90;;;6.71;100.00;97059.50;4970726;28;20467;-81
2024/01/01 04:30:10;;;;;;;2.83;1.60;;;6.20;99.90;;;6.69;100.00;97053.72;4971059;28;20480;-82
2024/01/01 04:32:38;;;;;;;7.90;1.63;;;6.30;99.90;;;6.67;100.00;97058.28;4972355;28;20563;-78
2024/01/01 04:35:08;;;;;;;7.50;1.80;;;6.20;99.90;;;6.68;100.00;97052.09;4971304;28;20523;-77
2024/01/01 04:37:37;;;;;;;3.80;1.10;;;6.30;99.90;;;6.59;100.00;97046.25;4972783;28;20461;-78
2024/01/01 04:40:07;;;;;;;3.13;1.10;;;6.30;99.90;;;6.59;100.00;97052.22;4972568;28;20847;-77
2024/01/01 04:42:37;;;;;;;6.30;1.30;;;6.30;99.90;;;6.54;100.00;97071.97;4971875;28;21231;-79
2024/01/01 04:45:07;;;;;;;2.20;1.00;;;6.10;99.90;;;6.57;100.00;97058.59;4970199;28;20523;-78
2024/01/01 04:47:35;;;;;;;4.53;1.17;;;6.10;99.90;;;6.60;100.00;97060.81;4973200;28;21268;-78
2024/01/01 04:50:04;;;;;;;8.57;1.23;;;6.10;99.90;;;6.58;100.00;97073.19;4971742;28;20511;-77
2024/01/01 04:52:33;;;;;;;2.37;1.10;;;6.20;99.90;;;6.58;100.00;97068.00;4972104;28;20483;-78
2024/01/01 04:55:02;;;;;;;6.87;1.10;;;6.20;99.90;;;6.62;100.00;97071.03;4973384;28;20519;-78
2024/01/01 04:57:31;;;;;;;3.00;1.20;;;6.10;99.90;;;6.63;100.00;97067.47;4970512;28;20465;-78
2024/01/01 05:00:01;;;;;;;5.27;1.50;;;6.10;99.90;;;6.61;100.00;97051.25;4974829;28;20986;-78
2024/01/01 05:02:29;;;;;;;3.07;1.10;;;6.20;99.90;;;6.62;100.00;97060.66;4973695;28;20465;-78
2024/01/01 05:04:58;;;;;;;3.27;1.53;;;6.10;99.90;;;6.59;100.00;97056.63;4972838;28;20468;-78
2024/01/01 05:07:27;;;;;;;5.57;1.67;;;6.20;99.90;;;6.54;100.00;97070.16;4971813;28;20470;-77
2024/01/01 05:09:55;;;;;;;5.20;1.60;;;6.10;99.90;;;6.56;100.00;97062.97;4972739;28;20547;-77
2024/01/01 05:12:24;;;;;;;5.27;1.50;;;6.10;99.90;;;6.60;100.00;97053.03;4970888;28;20512;-78
2024/01/01 05:14:53;;;;;;;6.43;1.47;;;6.10;99.90;;;6.51;100.00;97070.53;4971322;28;20499;-78
2024/01/01 05:17:24;;;;;;;4.20;1.57;;;6.10;99.90;;;6.45;100.00;97060.91;4973054;28;20480;-79
2024/01/01 05:19:53;;;;;;;2.70;1.23;;;6.10;99.90;;;6.50;100.00;97058.53;4969627;28;21259;-79
2024/01/01 05:22:21;;;;;;;40.70;19.93;;;6.20;99.90;;;6.52;100.00;97061.78;4965019;28;20535;-76
2024/01/01 05:24:50;;;;;;;10.30;3.40;;;6.10;99.90;;;6.54;100.00;97059.78;4968079;28;20469;-78
2024/01/01 05:27:19;;;;;;;7.23;1.77;;;6.10;99.90;;;6.59;100.00;97062.59;4966908;28;20483;-78
2024/01/01 05:29:47;;;;;;;23.83;10.63;;;6.10;99.90;;;6.60;100.00;97068.59;4970878;28;20471;-76
2024/01/01 05:32:16;;;;;;;6.80;2.77;;;6.10;99.90;;;6.58;100.00;97062.81;4967708;28;20599;-79
2024/01/01 05:34:46;;;;;;;6.13;2.03;;;6.20;99.90;;;6.56;100.00;97068.19;4965709;28;21258;-78
2024/01/01 05:37:15;;;;;;;13.87;1.70;;;6.10;99.90;;;6.62;100.00;97063.25;4969494;28;20471;-78
2024/01/01 05:39:44;;;;;;;18.40;2.53;;;6.20;99.90;;;6.65;100.00;97060.28;4970286;28;20488;-78
2024/01/01 05:42:12;;;;;;;7.80;2.40;;;6.20;99.90;;;6.68;100.00;97075.47;4968744;28;20483;-78
2024/01/01 05:44:41;;;;;;;4.70;1.40;;;6.20;99.90;;;6.68;100.00;97070.28;4969401;28;20468;-78
2024/01/01 05:47:09;;;;;;;11.87;1.70;;;6.20;99.90;;;6.68;100.00;97075.47;4970492;28;21250;-79
2024/01/01 05:49:38;;;;;;;9.60;1.67;;;6.20;99.90;;;6.68;100.00;97070.28;4968307;28;20485;-79
2024/01/01 05:52:09;;;;;;;8.03;2.20;;;6.30;99.90;;;6.63;100.00;97090.84;4968297;28;20507;-79
2024/01/01 05:54:37;;;;;;;5.83;1.63;;;6.20;99.90;;;6.61;100.00;97082.41;4967956;28;20465;-79
2024/01/01 05:57:06;;;;;;;8.47;1.83;;;6.30;99.90;;;6.57;100.00;97080.19;4969131;28;20476;-79
2024/01/01 05:59:35;;;;;;;6.83;1.43;;;6.20;99.90;;;6.55;100.00;97084.78;4968636;28;20479;-79
2024/01/01 06:02:04;;;;;;;8.80;2.43;;;6.20;99.90;;;6.53;100.00;97084.13;4967667;28;20463;-79
2024/01/01 06:04:33;;;;;;;14.57;1.63;;;6.20;99.90;;;6.58;100.00;97091.38;4967195;28;20852;-79
2024/01/01 06:07:02;;;;;;;8.07;2.13;;;6.20;99.90;;;6.59;100.00;97096.38;4969784;28;20563;-80
2024/01/01 06:09:34;;;;;;;6.20;1.70;;;6.20;99.90;;;6.62;100.00;97084.84;4967080;28;20480;-79
2024/01/01 06:12:03;;;;;;;6.47;2.20;;;6.20;99.90;;;6.57;100.00;97080.19;4968712;28;20532;-80
2024/01/01 06:14:31;;;;;;;11.40;1.57;;;6.30;99.90;;;6.53;100.00;97089.31;4970414;28;20958;-79
2024/01/01 06:17:00;;;;;;;8.70;2.03;;;6.10;99.90;;;6.58;100.00;97089.59;4967088;28;20468;-79
2024/01/01 06:19:29;;;;;;;12.70;2.70;;;6.20;99.90;;;6.55;100.00;97092.56;4968018;28;20478;-80
2024/01/01 06:21:57;;;;;;;4.00;1.70;;;6.20;99.90;;;6.53;100.00;97093.72;4967713;28;20482;-80
2024/01/01 06:24:26;;;;;;;13.13;2.00;;;6.20;99.90;;;6.54;100.00;97090.13;4969832;28;20468;-79
2024/01/01 06:26:56;;;;;;;7.43;1.70;;;6.10;99.90;;;6.57;100.00;97100.16;4971168;28;20872;-79
2024/01/01 06:29:26;;;;;;;3.60;1.70;;;6.10;99.90;;;6.56;100.00;97099.34;4973899;28;20468;-79
2024/01/01 06:31:55;;;;;;;8.27;2.00;;;6.20;99.90;;;6.56;100.00;97104.53;4972462;28;21290;-80
2024/01/01 06:34:24;;;;;;;3.73;1.23;;;6.10;99.90;;;6.60;100.00;97115.34;4970006;28;20523;-79
2024/01/01 06:36:52;;;;;;;8.50;1.80;;;6.00;99.90;;;6.58;100.00;97118.16;4968343;28;20484;-79
2024/01/01 06:39:21;;;;;;;8.53;1.97;;;6.20;99.90;;;6.61;100.00;97113.56;4970569;28;20469;-80
2024/01/01 06:41:50;;;;;;;3.90;1.20;;;6.20;99.90;;;6.61;100.00;97122.16;4969147;28;20480;-79
2024/01/01 06:44:25;;;;;;;6.00;3.43;;;6.20;99.90;;;6.62;100.00;97130.78;4968455;28;20479;-79
2024/01/01 06:46:53;;;;;;;14.27;1.87;;;6.20;99.90;;;6.60;100.00;97125.75;4969175;28;20552;-79
2024/01/01 06:49:22;;;;;;;3.33;1.13;;;6.20;99.90;;;6.64;100.00;97123.59;4972703;28;20568;-79
2024/01/01 06:51:51;;;;;;;6.90;1.77;;;6.20;99.90;;;6.61;100.00;97127.38;4973200;28;20590;-75
2024/01/01 06:54:19;;;;;;;5.13;1.80;;;6.10;99.90;;;6.56;100.00;97135.69;4969940;28;20541;-79
2024/01/01 06:56:48;;;;;;;6.47;1.63;;;6.10;99.90;;;6.50;100.00;97133.84;4971545;28;20459;-80
2024/01/01 06:59:19;;;;;;;8.17;1.63;;;6.20;99.90;;;6.51;100.00;97142.44;4973373;28;20481;-79
2024/01/01 07:01:47;;;;;;;6.73;1.17;;;6.10;99.90;;;6.45;100.00;97150.97;4971093;28;20471;-79
2024/01/01 07:04:16;;;;;;;3.80;1.77;;;6.00;99.90;;;6.47;100.00;97149.00;4970925;28;20488;-79
2024/01/01 07:06:44;;;;;;;2.97;1.30;;;6.10;99.90;;;6.41;100.00;97155.72;4972033;28;20468;-78
2024/01/01 07:09:13;;;;;;;4.40;1.73;;;6.00;99.90;;;6.43;100.00;97158.13;4969129;28;20464;-78
2024/01/01 07:11:42;;;;;;;4.57;1.50;;;6.00;99.90;;;6.39;100.00;97165.47;4970748;28;20484;-79
2024/01/01 07:14:11;;;;;;;5.70;1.80;;;6.00;99.90;;;6.36;100.00;97160.66;4967096;28;20471;-78
2024/01/01 07:16:41;;;;;;;6.70;1.90;;;6.00;99.90;;;6.36;100.00;97160.66;4971460;28;20492;-78
2024/01/01 07:19:10;;;;;;;4.90;1.80;;;5.90;99.90;;;6.36;100.00;97163.25;4972955;28;20490;-78
2024/01/01 07:21:38;;;;;;;10.20;1.80;;;6.00;99.90;;;6.37;100.00;97174.44;4971707;28;20461;-78
2024/01/01 07:24:07;;;;;;;2.80;1.37;;;6.00;99.90;;;6.39;100.00;97173.25;4971335;28;20473;-79
2024/01/01 07:26:36;;;;;;;5.80;1.60;;;5.90;99.90;;;6.37;100.00;97171.84;4970270;28;20460;-77
2024/01/01 07:29:05;;;;;;;11.03;1.87;;;5.90;99.90;;;6.37;100.00;97190.84;4971959;28;20468;-78
2024/01/01 07:31:35;;;;;;;11.23;2.13;;;5.90;99.90;;;6.41;100.00;97197.28;4970971;28;20475;-78
2024/01/01 07:34:05;;;;;;;10.03;2.20;;;5.80;99.90;;;6.42;100.00;97187.69;4970810;28;20940;-77
2024/01/01 07:36:34;;;;;;;7.13;1.70;;;5.90;99.90;;;6.42;100.00;97201.47;4969610;28;20468;-77
2024/01/01 07:39:02;;;;;;;10.60;2.40;;;5.90;99.90;;;6.43;100.00;97204.88;4969791;28;20958;-78
2024/01/01 07:41:31;;;;;;;13.20;2.13;;;5.90;99.90;;;6.44;100.00;97203.88;4971127;28;20488;-78
2024/01/01 07:44:00;;;;;;;6.33;1.63;;;6.00;99.90;;;6.47;100.00;97199.13;4973712;28;20467;-78
2024/01/01 07:46:28;;;;;;;7.20;1.87;;;6.00;99.90;;;6.48;100.00;97213.75;4969876;28;20551;-78
2024/01/01 07:49:00;;;;;;;4.83;1.50;;;6.00;99.90;;;6.49;100.00;97207.53;4971183;28;20468;-78
2024/01/01 07:51:30;;;;;;;6.47;1.43;;;6.00;99.90;;;6.47;100.00;97217.31;4967159;28;20486;-78
2024/01/01 07:53:58;;;;;;;10.70;1.77;;;6.00;99.90;;;6.41;100.00;97204.25;4973645;28;21045;-78
2024/01/01 07:56:27;;;;;;;3.40;1.20;;;5.90;99.90;;;6.44;100.00;97207.28;4969407;28;20472;-77
2024/01/01 07:58:57;;;;;;;2.80;1.40;;;6.00;99.90;;;6.44;100.00;97199.50;4977231;28;20553;-76
2024/01/01 08:01:26;;;;;;;11.10;2.10;;;6.00;99.90;;;6.43;100.00;97203.06;4972102;28;20468;-77
2024/01/01 08:03:54;;;;;;;4.77;1.40;;;5.90;99.90;;;6.46;100.00;97205.31;4971926;28;20472;-78
2024/01/01 08:06:23;;;;;;;2.20;1.20;;;6.00;99.90;;;6.47;100.00;97201.72;4972574;28;20463;-77
2024/01/01 08:08:53;;;;;;;5.23;1.37;;;6.10;99.90;;;6.47;100.00;97200.91;4971118;28;20460;-79
2024/01/01 08:11:21;;;;;;;3.80;1.50;;;6.10;99.90;;;6.47;100.00;97209.53;4972931;28;20481;-77
2024/01/01 08:13:50;;;;;;;11.20;2.10;;;6.10;99.90;;;6.49;100.00;97210.13;4972854;28;20495;-79
2024/01/01 08:16:19;;;;;;;10.97;1.73;;;6.10;99.90;;;6.51;100.00;97213.38;4969083;28;20473;-79
2024/01/01 08:18:48;;;;;;;12.33;1.90;;;6.20;99.90;;;6.48;100.00;97210.34;4971289;28;20483;-79
2024/01/01 08:21:17;;;;;;;13.30;2.00;;;6.20;99.90;;;6.51;100.00;97215.16;4971608;28;20465;-78
2024/01/01 08:23:45;;;;;;;11.43;1.77;;;6.20;99.90;;;6.52;100.00;97222.78;4969557;28;20510;-77
2024/01/01 08:26:16;;;;;;;2.20;1.23;;;6.20;99.90;;;6.53;100.00;97213.16;4972673;28;21050;-77
2024/01/01 08:28:51;;;;;;;15.30;3.60;;;6.10;99.90;;;6.57;100.00;97217.84;4971278;28;20474;-77
2024/01/01 08:31:20;;;;;;;12.93;2.10;;;6.10;99.90;;;6.61;100.00;97222.66;4971697;28;20468;-77
2024/01/01 08:33:49;;;;;;;9.23;2.27;;;6.20;99.90;;;6.62;100.00;97216.47;4973413;28;20942;-78
2024/01/01 08:36:19;;;;;;;6.87;2.03;;;6.30;99.90;;;6.64;100.00;97217.09;4972094;28;20478;-78
2024/01/01 08:38:49;;;;;;;8.70;2.03;;;6.30;99.90;;;6.64;100.00;97224.88;4970225;28;20457;-78
2024/01/01 08:41:18;;;;;;;15.27;2.50;;;6.20;99.90;;;6.64;100.00;97227.47;4968632;28;20504;-78
2024/01/01 08:43:56;;;;;;;6.00;2.07;;;6.20;99.90;;;6.66;100.00;97241.09;4971061;28;20556;-77
2024/01/01 08:46:26;;;;;;;23.90;2.40;;;6.20;99.90;;;6.69;100.00;97233.75;4972621;28;20467;-78
2024/01/01 08:48:55;;;;;;;9.00;1.70;;;6.30;99.90;;;6.72;100.00;97242.97;4971324;28;20541;-79
2024/01/01 08:51:24;;;;;;;15.27;2.80;;;6.40;99.90;;;6.72;100.00;97245.56;4970960;28;20471;-79
2024/01/01 08:53:52;;;;;;;11.80;2.00;;;6.30;99.90;;;6.76;100.00;97247.63;4975310;28;20499;-79
2024/01/01 08:56:22;;;;;;;8.20;2.23;;;6.30;99.90;;;6.80;100.00;97245.47;4970831;28;20824;-79
2024/01/01 08:58:51;;;;;;;8.20;1.97;;;6.30;99.90;;;6.82;100.00;97265.06;4972865;28;20541;-79
2024/01/01 09:01:20;;;;;;;15.67;2.80;;;6.40;99.90;;;6.78;100.00;97260.41;4972229;28;21005;-79
2024/01/01 09:03:48;;;;;;;7.10;1.67;;;6.30;99.90;;;6.82;100.00;97261.66;4972136;28;20456;-79
2024/01/01 09:06:17;;;;;;;11.63;1.80;;;6.40;99.90;;;6.81;100.00;97265.25;4971873;28;20509;-79
2024/01/01 09:08:46;;;;;;;6.57;2.00;;;6.30;99.90;;;6.86;100.00;97276.72;4971643;28;20476;-79
2024/01/01 09:11:15;;;;;;;13.23;2.47;;;6.40;99.90;;;6.83;100.00;97271.09;4974385;28;21324;-77
2024/01/01 09:13:45;;;;;;;10.40;1.80;;;6.50;99.90;;;6.83;100.00;97276.28;4968510;28;20543;-78
2024/01/01 09:16:13;;;;;;;8.17;2.23;;;6.50;99.90;;;6.83;100.00;97281.47;4970870;28;20959;-78
2024/01/01 09:18:42;;;;;;;6.00;1.70;;;6.50;99.90;;;6.84;100.00;97277.88;4968464;28;20464;-78
2024/01/01 09:21:15;;;;;;;19.47;4.20;;;6.50;99.90;;;6.87;100.00;97288.72;4972053;28;20829;-78
2024/01/01 09:23:43;;;;;;;8.50;1.93;;;6.50;99.90;;;6.92;100.00;97304.56;4971264;28;20465;-78
2024/01/01 09:26:14;;;;;;;9.20;1.87;;;6.50;99.90;;;6.91;100.00;97304.75;4971476;28;20469;-79
2024/01/01 09:28:44;;;;;;;9.20;1.93;;;6.50;99.90;;;6.95;100.00;97306.00;4971698;28;20885;-79
2024/01/01 09:31:13;;;;;;;4.90;1.70;;;6.50;99.90;;;6.92;100.00;97299.38;4972890;28;20563;-77
2024/01/01 09:33:41;;;;;;;8.83;2.17;;;6.50;99.90;;;6.86;100.00;97307.91;4971350;28;20492;-79
2024/01/01 09:36:14;;;;;;;7.87;2.10;;;6.50;99.90;;;6.86;100.00;97312.28;4974680;28;20482;-79
2024/01/01 09:38:43;;;;;;;16.70;3.17;;;6.50;99.90;;;6.87;100.00;97299.09;4973910;28;20465;-77
2024/01/01 09:41:12;;;;;;;7.03;2.30;;;6.50;99.90;;;6.93;100.00;97308.78;4970965;28;20484;-79
2024/01/01 09:43:42;;;;;;;10.30;2.20;;;6.50;99.90;;;6.95;100.00;97308.59;4968144;28;20465;-80
2024/01/01 09:46:14;;;;;;;7.03;1.90;;;6.50;99.90;;;6.94;100.00;97310.38;4970220;28;20495;-80
2024/01/01 09:48:43;;;;;;;10.10;2.60;;;6.50;99.90;;;6.96;100.00;97315.41;4970829;28;20499;-80
2024/01/01 09:51:12;;;;;;;7.03;1.80;;;6.50;99.90;;;6.99;100.00;97323.66;4971471;28;20476;-80
2024/01/01 09:53:40;;;;;;;14.27;2.00;;;6.60;99.90;;;6.96;100.00;97323.22;4973024;28;20859;-80
2024/01/01 09:56:09;;;;;;;16.00;1.77;;;6.40;99.90;;;6.96;100.00;97325.81;4970874;28;20897;-80
2024/01/01 09:58:41;;;;;;;18.00;2.10;;;6.40;99.90;;;6.99;100.00;97321.03;4971531;28;20980;-80
2024/01/01 10:01:16;;;;;;;8.60;1.93;;;6.50;99.90;;;6.97;100.00;97314.44;4969686;28;20959;-80
2024/01/01 10:03:45;;;;;;;6.73;2.53;;;6.50;99.90;;;6.91;100.00;97321.13;4972692;28;21061;-79
2024/01/01 10:06:15;;;;;;;8.43;2.47;;;6.50;99.90;;;6.98;100.00;97323.81;4970514;28;20465;-80
2024/01/01 10:08:43;;;;;;;10.40;2.57;;;6.50;99.90;;;6.99;100.00;97328.03;4970408;28;20460;-80
2024/01/01 10:11:18;;;;;;;11.37;2.60;;;6.50;99.90;;;6.98;100.00;97329.81;4967574;28;20980;-79
2024/01/01 10:13:47;;;;;;;11.90;2.10;;;6.70;99.90;;;6.96;100.00;97324.00;4968181;28;20476;-79
2024/01/01 10:16:26;;;;;;;12.73;2.27;;;6.50;99.90;;;7.03;100.00;97319.69;4970828;28;20472;-80
2024/01/01 10:18:57;;;;;;;6.23;1.83;;;6.60;99.90;;;7.08;100.00;97327.75;4969499;28;20482;-79
2024/01/01 10:21:30;;;;;;;13.10;1.90;;;6.60;99.90;;;7.10;100.00;97330.16;4968326;28;20465;-79
2024/01/01 10:24:12;;;;;;;12.00;2.33;;;6.70;99.90;;;7.15;100.00;97325.22;4969296;28;20464;-79
2024/01/01 10:27:02;;;;;;;9.30;2.20;;;6.70;99.90;;;7.07;100.00;97323.56;4971066;28;20956;-79
2024/01/01 10:29:36;;;;;;;8.90;2.67;;;6.60;99.90;;;7.10;100.00;97324.97;4972107;28;20467;-79
2024/01/01 10:32:08;;;;;;;6.73;1.93;;;6.80;99.90;;;7.13;100.00;97329.81;4970019;28;20468;-79